Estación Meteorológica Peña el Pijo (Robertgarden) [ 01/30/23 13:48:54 CET ]

Fecha Hora Presion(HPa) Temp (°C) Humedad % Rocio (°C) Viento ( m/s) Direccion Lluvia 1Hora(mm) Lluvia 24H(mm) LLuvia Total(mm)
2010-Jan-20 01:01:19 1011.200 9.3 84 6.7         66.30
2010-Jan-20 02:03:17 1010.700 8.9 81 5.8         66.30
2010-Jan-20 03:01:13 1010.600 8.3 75 4.1         66.30
2010-Jan-20 04:01:21 1011.100 8.1 72 3.4 2.1 SE     66.30
2010-Jan-20 05:01:19 1010.900 7.3 70 2.2         66.30
2010-Jan-20 06:01:17 1011.000 6.8 71 1.9         66.30
2010-Jan-20 07:01:18 1011.600 6.1 73 1.6         66.30
2010-Jan-20 08:01:16 1012.300 5.4 74 1.1         66.30
2010-Jan-20 09:01:13 1012.900 4.9 76 1.0         66.30
2010-Jan-20 10:01:14 1013.700 8.1 68 2.5         66.30
2010-Jan-20 11:01:10 1014.200 9.4 64 2.9 1.1 SE     66.30
2010-Jan-20 12:01:11 1014.300 8.4 68 2.8         66.30
2010-Jan-20 13:01:15 1013.500 9.3 70 4.1         66.30
2010-Jan-20 14:01:12 1012.700 9.9 68 4.3         66.30
2010-Jan-20 15:01:14 1012.000 9.8 70 4.6         66.30
2010-Jan-20 16:01:11 1012.100 9.6 70 4.4 0.7 S     66.30
2010-Jan-20 17:01:14 1012.000 9.3 66 3.2 3.3 SSW     66.30
2010-Jan-20 18:01:13 1012.300 8.1 66 2.1         66.30
2010-Jan-20 19:01:12 1012.800 7.4 68 1.9         66.30
2010-Jan-20 20:01:13 1013.400 7.1 70 2.0         66.30
2010-Jan-20 21:01:12 1013.700 6.8 71 1.9         66.30
2010-Jan-20 22:01:13 1014.300 5.8 74 1.5         66.30
2010-Jan-20 23:01:14 1014.600 4.3 76 0.4         66.30

Temperatura Máxima:    Temperatura Mínima:
Presión Máxima:1014.600 Hpa    Presión Mínima:1010.600 Hpa


Volver